Santa Barbara Municipal Airport Santa Barbara US
ICAO: KSBA
IATA: SBA
Category: Medium
Scheduled Services: Yes

Elevation: 13 ft
TransAlt. 18000 ft.

Airport Communications:
APP/DEP:120.55
APP/DEP:127.725
ATIS:132.65
CLNC DEL:132.9
CTAF:119.7
GND:121.7
TWR:119.7
UNICOM:122.95

KSBA Zoom In..

If you have problems with the map follow the link
https://www.worldairports.se/pages/airport.php?
ICAO=KSBA

Runways:

(A) RW 07 length 6052 ft width 150 ft
ILS 110.30 / hdg 74

(B) RW 15L length 4178 ft width 75 ft
---- / hdg 151

(C) RW 15R length 4184 ft width 100 ft
---- / hdg 151

(D) RW 25 length 6052 ft width 150 ft
---- / hdg 254

(E) RW 33L length 4184 ft width 100 ft
---- / hdg 331

(F) RW 33R length 4178 ft width 75 ft
---- / hdg 331

Location; KSBA
Day. 05 / Time. 22.53 Zulu
* Altimeter: 30.09
* Temperature: 17° c. 62.6°f.
* Wind from: 120° Speed 06 kn.
Dewpoint: 13° c.
Visibility: 10 Statute Miles.
Clouds: Scattered 3500 ft.
Clouds: Broken 6000 ft.

KSBA 052253Z 12006KT 10SM SCT035 BKN060 17/13 A3009 RMK AO2 SLP190 T01670133


Wind From 120°
Speed 06 kn.

 
 
jpsmedia worldairports.se 2019   terms of use